createdAt,value
2023-05-23T00:00:30.659Z,15.96
2023-05-23T00:01:30.641Z,15.94
2023-05-23T00:02:30.743Z,15.94
2023-05-23T00:03:30.715Z,15.93
2023-05-23T00:04:30.681Z,15.92
2023-05-23T00:05:30.620Z,15.92
2023-05-23T00:06:30.579Z,15.92
2023-05-23T00:07:30.575Z,15.90
2023-05-23T00:08:30.540Z,15.89
2023-05-23T00:09:30.569Z,15.84
2023-05-23T00:10:30.511Z,15.80
2023-05-23T00:11:30.500Z,15.78
2023-05-23T00:12:30.483Z,15.78
2023-05-23T00:13:30.464Z,15.75
2023-05-23T00:14:30.465Z,15.71
2023-05-23T00:15:30.472Z,15.69
2023-05-23T00:16:30.503Z,15.71
2023-05-23T00:17:30.436Z,15.69
2023-05-23T00:18:30.407Z,15.71
2023-05-23T00:19:30.552Z,15.71
2023-05-23T00:20:30.460Z,15.69
2023-05-23T00:21:30.381Z,15.69
2023-05-23T00:22:30.361Z,15.69
2023-05-23T00:23:30.344Z,15.69
2023-05-23T00:24:30.317Z,15.71
2023-05-23T00:25:30.339Z,15.68
2023-05-23T00:26:30.309Z,15.65
2023-05-23T00:27:30.338Z,15.67
2023-05-23T00:28:30.291Z,15.68
2023-05-23T00:29:30.288Z,15.69
2023-05-23T00:30:30.283Z,15.69
2023-05-23T00:31:30.349Z,15.69
2023-05-23T00:32:30.228Z,15.71
2023-05-23T00:33:30.196Z,15.71
2023-05-23T00:34:30.198Z,15.71
2023-05-23T00:35:30.185Z,15.75
2023-05-23T00:36:30.206Z,15.74
2023-05-23T00:37:30.220Z,15.74
2023-05-23T00:38:30.172Z,15.74
2023-05-23T00:39:30.110Z,15.74
2023-05-23T00:40:30.116Z,15.74
2023-05-23T00:41:30.105Z,15.75
2023-05-23T00:42:30.112Z,15.75
2023-05-23T00:43:30.083Z,15.76
2023-05-23T00:44:30.110Z,15.75
2023-05-23T00:45:30.045Z,15.76
2023-05-23T00:46:30.085Z,15.75
2023-05-23T00:47:30.076Z,15.75
2023-05-23T00:48:30.022Z,15.76
2023-05-23T00:49:30.033Z,15.75
2023-05-23T00:50:29.961Z,15.75
2023-05-23T00:51:30.007Z,15.74
2023-05-23T00:52:29.951Z,15.75
2023-05-23T00:53:29.981Z,15.72
2023-05-23T00:54:29.994Z,15.72
2023-05-23T00:55:29.903Z,15.71
2023-05-23T00:56:29.897Z,15.68
2023-05-23T00:57:29.913Z,15.69
2023-05-23T00:58:29.877Z,15.71
2023-05-23T00:59:29.844Z,15.69
2023-05-23T01:00:29.874Z,15.71
2023-05-23T01:01:29.889Z,15.71
2023-05-23T01:02:29.933Z,15.74
2023-05-23T01:03:29.861Z,15.75
2023-05-23T01:04:29.802Z,15.72
2023-05-23T01:05:29.786Z,15.74
2023-05-23T01:06:29.765Z,15.75
2023-05-23T01:07:29.776Z,15.78
2023-05-23T01:08:29.725Z,15.75
2023-05-23T01:09:29.748Z,15.76
2023-05-23T01:10:29.747Z,15.75
2023-05-23T01:11:29.676Z,15.75
2023-05-23T01:12:29.676Z,15.75
2023-05-23T01:13:29.686Z,15.78
2023-05-23T01:14:29.665Z,15.80
2023-05-23T01:15:29.654Z,15.78
2023-05-23T01:16:29.654Z,15.78
2023-05-23T01:17:29.651Z,15.78
2023-05-23T01:18:29.580Z,15.82
2023-05-23T01:19:29.646Z,15.80
2023-05-23T01:20:29.661Z,15.80
2023-05-23T01:21:29.543Z,15.75
2023-05-23T01:22:29.539Z,15.78
2023-05-23T01:23:29.535Z,15.78
2023-05-23T01:24:29.548Z,15.76
2023-05-23T01:25:29.550Z,15.78
2023-05-23T01:26:29.496Z,15.78
2023-05-23T01:27:29.473Z,15.80
2023-05-23T01:28:29.445Z,15.80
2023-05-23T01:29:29.427Z,15.80
2023-05-23T01:30:29.444Z,15.80
2023-05-23T01:31:29.536Z,15.80
2023-05-23T01:32:29.485Z,15.82
2023-05-23T01:33:29.387Z,15.83
2023-05-23T01:34:29.390Z,15.80
2023-05-23T01:35:29.372Z,15.82
2023-05-23T01:36:29.364Z,15.78
2023-05-23T01:37:29.316Z,15.76
2023-05-23T01:38:29.329Z,15.78
2023-05-23T01:39:29.311Z,15.78
2023-05-23T01:40:29.316Z,15.76
2023-05-23T01:41:29.317Z,15.75
2023-05-23T01:42:29.271Z,15.76
2023-05-23T01:43:29.301Z,15.75
2023-05-23T01:44:29.239Z,15.76
2023-05-23T01:45:29.255Z,15.75
2023-05-23T01:46:29.294Z,15.78
2023-05-23T01:47:29.274Z,15.76
2023-05-23T01:48:29.219Z,15.76
2023-05-23T01:49:29.232Z,15.72
2023-05-23T01:50:29.148Z,15.76
2023-05-23T01:51:29.135Z,15.78
2023-05-23T01:52:29.182Z,15.78
2023-05-23T01:53:29.129Z,15.80
2023-05-23T01:54:29.114Z,15.83
2023-05-23T01:55:29.099Z,15.82
2023-05-23T01:56:29.136Z,15.82
2023-05-23T01:57:29.083Z,15.80
2023-05-23T01:58:29.075Z,15.80
2023-05-23T01:59:29.089Z,15.76
2023-05-23T02:00:29.030Z,15.75
2023-05-23T02:01:29.059Z,15.75
2023-05-23T02:02:29.127Z,15.72
2023-05-23T02:03:29.071Z,15.72
2023-05-23T02:04:28.984Z,15.75
2023-05-23T02:05:28.986Z,15.74
2023-05-23T02:06:29.002Z,15.74
2023-05-23T02:07:28.931Z,15.74
2023-05-23T02:08:28.911Z,15.72
2023-05-23T02:09:28.880Z,15.69
2023-05-23T02:10:28.953Z,15.69
2023-05-23T02:11:28.893Z,15.69
2023-05-23T02:12:28.892Z,15.68
2023-05-23T02:13:28.855Z,15.71
2023-05-23T02:14:28.883Z,15.68
2023-05-23T02:15:28.812Z,15.69
2023-05-23T02:16:28.931Z,15.71
2023-05-23T02:17:28.845Z,15.71
2023-05-23T02:18:28.761Z,15.72
2023-05-23T02:19:28.819Z,15.69
2023-05-23T02:20:28.762Z,15.72
2023-05-23T02:21:28.760Z,15.68
2023-05-23T02:22:28.758Z,15.69
2023-05-23T02:23:28.724Z,15.69
2023-05-23T02:24:28.695Z,15.69
2023-05-23T02:25:28.680Z,15.71
2023-05-23T02:26:28.657Z,15.71
2023-05-23T02:27:28.655Z,15.71
2023-05-23T02:28:28.653Z,15.69
2023-05-23T02:29:28.636Z,15.69
2023-05-23T02:30:28.618Z,15.71
2023-05-23T02:31:28.670Z,15.74
2023-05-23T02:32:28.605Z,15.71
2023-05-23T02:33:28.570Z,15.72
2023-05-23T02:34:28.567Z,15.72
2023-05-23T02:35:28.551Z,15.69
2023-05-23T02:36:28.538Z,15.72
2023-05-23T02:37:28.570Z,15.72
2023-05-23T02:38:28.515Z,15.71
2023-05-23T02:39:28.513Z,15.71
2023-05-23T02:40:28.562Z,15.72
2023-05-23T02:41:28.602Z,15.69
2023-05-23T02:42:28.466Z,15.68
2023-05-23T02:43:28.444Z,15.69
2023-05-23T02:44:28.488Z,15.68
2023-05-23T02:45:28.470Z,15.68
2023-05-23T02:46:28.549Z,15.67
2023-05-23T02:47:28.492Z,15.69
2023-05-23T02:48:28.433Z,15.67
2023-05-23T02:49:28.818Z,15.68
2023-05-23T02:50:28.454Z,15.67
2023-05-23T02:51:28.426Z,15.67
2023-05-23T02:52:28.411Z,15.64
2023-05-23T02:53:28.333Z,15.64
2023-05-23T02:54:28.407Z,15.60
2023-05-23T02:55:28.297Z,15.57
2023-05-23T02:56:28.276Z,15.54
2023-05-23T02:57:28.300Z,15.54
2023-05-23T02:58:28.224Z,15.53
2023-05-23T02:59:28.252Z,15.51
2023-05-23T03:00:28.253Z,15.50
2023-05-23T03:01:28.248Z,15.51
2023-05-23T03:02:28.335Z,15.49
2023-05-23T03:03:28.270Z,15.49
2023-05-23T03:04:28.286Z,15.47
2023-05-23T03:05:28.175Z,15.47
2023-05-23T03:06:28.196Z,15.49
2023-05-23T03:07:28.983Z,15.47
2023-05-23T03:08:28.186Z,15.49
2023-05-23T03:09:28.184Z,15.46
2023-05-23T03:10:28.194Z,15.44
2023-05-23T03:11:28.117Z,15.46
2023-05-23T03:12:28.071Z,15.46
2023-05-23T03:13:28.146Z,15.44
2023-05-23T03:14:28.070Z,15.47
2023-05-23T03:15:28.039Z,15.49
2023-05-23T03:16:28.111Z,15.50
2023-05-23T03:17:28.054Z,15.46
2023-05-23T03:18:28.066Z,15.46
2023-05-23T03:19:28.020Z,15.47
2023-05-23T03:20:28.115Z,15.44
2023-05-23T03:21:28.705Z,15.44
2023-05-23T03:22:28.281Z,15.43
2023-05-23T03:23:28.077Z,15.41
2023-05-23T03:24:27.922Z,15.39
2023-05-23T03:25:28.058Z,15.34
2023-05-23T03:26:27.933Z,15.29
2023-05-23T03:27:27.902Z,15.28
2023-05-23T03:28:27.928Z,15.25
2023-05-23T03:29:27.886Z,15.21
2023-05-23T03:30:27.842Z,15.21
2023-05-23T03:31:28.562Z,15.23
2023-05-23T03:32:27.863Z,15.25
2023-05-23T03:33:27.838Z,15.23
2023-05-23T03:34:27.795Z,15.21
2023-05-23T03:35:28.018Z,15.20
2023-05-23T03:36:27.770Z,15.20
2023-05-23T03:37:27.744Z,15.17
2023-05-23T03:38:27.818Z,15.17
2023-05-23T03:39:27.819Z,15.14
2023-05-23T03:40:27.696Z,15.11
2023-05-23T03:41:27.685Z,15.11
2023-05-23T03:42:27.718Z,15.11
2023-05-23T03:43:27.683Z,15.11
2023-05-23T03:44:27.639Z,15.11
2023-05-23T03:45:27.631Z,15.10
2023-05-23T03:46:27.689Z,15.10
2023-05-23T03:47:27.633Z,15.13
2023-05-23T03:48:27.715Z,15.16
2023-05-23T03:49:27.581Z,15.11
2023-05-23T03:50:27.918Z,15.14
2023-05-23T03:51:27.573Z,15.14
2023-05-23T03:52:28.603Z,15.13
2023-05-23T03:53:27.511Z,15.13
2023-05-23T03:54:36.358Z,15.10
2023-05-23T03:55:27.493Z,15.09
2023-05-23T03:56:27.503Z,15.07
2023-05-23T03:57:27.447Z,15.06
2023-05-23T03:58:27.587Z,15.06
2023-05-23T03:59:29.324Z,15.07
2023-05-23T04:00:27.730Z,15.07
2023-05-23T04:01:27.410Z,15.06
2023-05-23T04:02:27.520Z,15.06
2023-05-23T04:03:27.746Z,15.07
2023-05-23T04:04:27.591Z,15.07
2023-05-23T04:05:27.488Z,15.09
2023-05-23T04:06:27.588Z,15.07
2023-05-23T04:07:28.163Z,15.09
2023-05-23T04:08:27.413Z,15.10
2023-05-23T04:09:27.823Z,15.10
2023-05-23T04:10:27.971Z,15.11
2023-05-23T04:11:27.403Z,15.11
2023-05-23T04:12:27.465Z,15.10
2023-05-23T04:13:27.543Z,15.10
2023-05-23T04:14:27.265Z,15.10
2023-05-23T04:15:27.261Z,15.10
2023-05-23T04:16:27.528Z,15.13
2023-05-23T04:17:27.457Z,15.16
2023-05-23T04:18:27.290Z,15.14
2023-05-23T04:19:27.358Z,15.13
2023-05-23T04:20:27.216Z,15.14
2023-05-23T04:21:27.318Z,15.14
2023-05-23T04:22:27.176Z,15.16
2023-05-23T04:23:27.087Z,15.14
2023-05-23T04:24:27.211Z,15.17
2023-05-23T04:25:27.096Z,15.14
2023-05-23T04:26:27.104Z,15.19
2023-05-23T04:27:27.169Z,15.20
2023-05-23T04:28:27.206Z,15.20
2023-05-23T04:29:27.281Z,15.23
2023-05-23T04:30:27.044Z,15.23
2023-05-23T04:31:27.183Z,15.23
2023-05-23T04:32:27.136Z,15.25
2023-05-23T04:33:27.026Z,15.25
2023-05-23T04:34:27.276Z,15.23
2023-05-23T04:35:27.300Z,15.21
2023-05-23T04:36:27.075Z,15.25
2023-05-23T04:37:27.277Z,15.27
2023-05-23T04:38:27.114Z,15.27
2023-05-23T04:39:27.095Z,15.25
2023-05-23T04:40:26.912Z,15.27
2023-05-23T04:41:27.078Z,15.27
2023-05-23T04:42:26.842Z,15.28
2023-05-23T04:43:27.040Z,15.29
2023-05-23T04:44:26.867Z,15.31
2023-05-23T04:45:26.938Z,15.28
2023-05-23T04:46:27.131Z,15.27
2023-05-23T04:47:27.189Z,15.27
2023-05-23T04:48:26.838Z,15.23
2023-05-23T04:49:26.835Z,15.25
2023-05-23T04:50:26.720Z,15.20
2023-05-23T04:51:26.895Z,15.16
2023-05-23T04:52:26.827Z,15.09
2023-05-23T04:53:26.703Z,15.09
2023-05-23T04:54:26.641Z,15.07
2023-05-23T04:55:26.668Z,15.06
2023-05-23T04:56:26.747Z,15.03
2023-05-23T04:57:26.727Z,14.99
2023-05-23T04:58:26.834Z,14.99
2023-05-23T04:59:26.763Z,14.96
2023-05-23T05:00:26.596Z,14.94
2023-05-23T05:01:26.666Z,14.92
2023-05-23T05:02:26.577Z,14.91
2023-05-23T05:03:26.570Z,14.91
2023-05-23T05:04:26.594Z,14.86
2023-05-23T05:05:26.589Z,14.86
2023-05-23T05:06:26.503Z,14.84
2023-05-23T05:07:26.503Z,14.84
2023-05-23T05:08:26.502Z,14.84
2023-05-23T05:09:26.786Z,14.86
2023-05-23T05:10:26.504Z,14.88
2023-05-23T05:11:26.438Z,14.91
2023-05-23T05:12:26.466Z,14.88
2023-05-23T05:13:26.461Z,14.86
2023-05-23T05:14:26.412Z,14.86
2023-05-23T05:15:26.370Z,14.84
2023-05-23T05:16:26.439Z,14.84
2023-05-23T05:17:26.433Z,14.89
2023-05-23T05:18:26.328Z,14.88
2023-05-23T05:19:26.361Z,14.89
2023-05-23T05:20:26.332Z,14.91
2023-05-23T05:21:26.280Z,14.89
2023-05-23T05:22:26.272Z,14.91
2023-05-23T05:23:26.281Z,14.92
2023-05-23T05:24:26.267Z,14.94
2023-05-23T05:25:26.305Z,14.95
2023-05-23T05:26:26.286Z,14.95
2023-05-23T05:27:27.810Z,14.94
2023-05-23T05:28:26.184Z,14.92
2023-05-23T05:29:26.200Z,14.86
2023-05-23T05:30:26.230Z,14.91
2023-05-23T05:31:26.372Z,14.89
2023-05-23T05:32:26.166Z,14.89
2023-05-23T05:33:26.160Z,14.92
2023-05-23T05:34:26.127Z,14.92
2023-05-23T05:35:26.105Z,14.89
2023-05-23T05:36:26.101Z,14.92
2023-05-23T05:37:26.089Z,14.91
2023-05-23T05:38:26.059Z,14.94
2023-05-23T05:39:26.126Z,14.95
2023-05-23T05:40:26.045Z,14.98
2023-05-23T05:41:25.997Z,14.92
2023-05-23T05:42:26.006Z,14.95
2023-05-23T05:43:26.028Z,14.94
2023-05-23T05:44:26.004Z,14.95
2023-05-23T05:45:26.001Z,14.96
2023-05-23T05:46:26.004Z,14.95
2023-05-23T05:47:26.141Z,14.95
2023-05-23T05:48:25.925Z,14.98
2023-05-23T05:49:25.934Z,14.98
2023-05-23T05:50:25.904Z,14.98
2023-05-23T05:51:25.868Z,14.99
2023-05-23T05:52:25.853Z,14.98
2023-05-23T05:53:25.860Z,14.96
2023-05-23T05:54:25.857Z,14.99
2023-05-23T05:55:25.865Z,15.01
2023-05-23T05:56:37.229Z,15.02
2023-05-23T05:57:26.824Z,15.01
2023-05-23T05:58:25.774Z,15.03
2023-05-23T05:59:25.777Z,15.02
2023-05-23T06:00:25.802Z,15.02
2023-05-23T06:01:25.755Z,15.02
2023-05-23T06:02:25.906Z,15.03
2023-05-23T06:03:25.935Z,15.03
2023-05-23T06:04:25.708Z,15.10
2023-05-23T06:05:25.718Z,15.13
2023-05-23T06:07:43.824Z,15.19
2023-05-23T06:08:50.080Z,15.20
2023-05-23T06:09:44.750Z,15.14
2023-05-23T06:10:43.924Z,15.16
2023-05-23T06:11:43.796Z,15.19
2023-05-23T06:12:43.725Z,15.20
2023-05-23T06:13:43.743Z,15.17
2023-05-23T06:14:43.690Z,15.17
2023-05-23T06:15:43.652Z,15.21
2023-05-23T06:16:43.751Z,15.25
2023-05-23T06:17:43.685Z,15.31
2023-05-23T06:18:43.634Z,15.35
2023-05-23T06:19:43.643Z,15.41
2023-05-23T06:20:52.723Z,15.39
2023-05-23T06:21:43.792Z,15.44
2023-05-23T06:22:43.651Z,15.49
2023-05-23T06:23:43.630Z,15.49
2023-05-23T06:24:43.601Z,15.49
2023-05-23T06:25:43.560Z,15.51
2023-05-23T06:26:43.630Z,15.50
2023-05-23T06:27:43.533Z,15.50
2023-05-23T06:28:43.491Z,15.46
2023-05-23T06:29:43.638Z,15.39
2023-05-23T06:30:43.617Z,15.39
2023-05-23T06:31:43.590Z,15.32
2023-05-23T06:32:43.517Z,15.32
2023-05-23T06:33:43.482Z,15.29
2023-05-23T06:34:43.605Z,15.28
2023-05-23T06:35:43.396Z,15.29
2023-05-23T06:36:43.454Z,15.36
2023-05-23T06:37:43.374Z,15.38
2023-05-23T06:38:43.430Z,15.46
2023-05-23T06:39:43.397Z,15.50
2023-05-23T06:40:45.071Z,15.50
2023-05-23T06:41:43.347Z,15.60
2023-05-23T06:42:43.455Z,15.69
2023-05-23T06:43:43.278Z,15.74
2023-05-23T06:44:43.280Z,15.76
2023-05-23T06:45:43.381Z,15.74
2023-05-23T06:46:43.285Z,15.67
2023-05-23T06:47:43.270Z,15.50
2023-05-23T06:48:43.243Z,15.43
2023-05-23T06:49:43.206Z,15.36
2023-05-23T06:50:43.489Z,15.27
2023-05-23T06:51:43.300Z,15.25
2023-05-23T06:52:43.673Z,15.21
2023-05-23T06:53:43.180Z,15.27
2023-05-23T06:54:43.173Z,15.29
2023-05-23T06:55:43.367Z,15.27
2023-05-23T06:56:43.163Z,15.29
2023-05-23T06:57:43.166Z,15.23
2023-05-23T06:58:44.682Z,15.20
2023-05-23T06:59:43.096Z,15.20
2023-05-23T07:00:43.186Z,15.17
2023-05-23T07:01:43.103Z,15.13
2023-05-23T07:02:43.102Z,15.11
2023-05-23T07:03:43.120Z,15.11
2023-05-23T07:04:43.065Z,15.11
2023-05-23T07:05:43.045Z,15.16
2023-05-23T07:06:43.002Z,15.11
2023-05-23T07:07:42.988Z,15.13
2023-05-23T07:08:42.954Z,15.20
2023-05-23T07:09:43.005Z,15.14
2023-05-23T07:10:43.082Z,15.16
2023-05-23T07:11:42.913Z,15.16
2023-05-23T07:12:42.949Z,15.16
2023-05-23T07:13:42.887Z,15.16
2023-05-23T07:14:42.885Z,15.20
2023-05-23T07:15:42.897Z,15.28
2023-05-23T07:16:42.899Z,15.29
2023-05-23T07:17:42.865Z,15.34
2023-05-23T07:18:42.846Z,15.23
2023-05-23T07:19:42.847Z,15.23
2023-05-23T07:20:42.990Z,15.25
2023-05-23T07:21:42.805Z,15.27
2023-05-23T07:22:42.910Z,15.28
2023-05-23T07:23:42.887Z,15.23
2023-05-23T07:24:42.736Z,15.23
2023-05-23T07:25:53.772Z,15.23
2023-05-23T07:26:43.883Z,15.09
2023-05-23T07:27:42.765Z,15.13
2023-05-23T07:28:42.702Z,15.13
2023-05-23T07:29:42.802Z,15.13
2023-05-23T07:30:42.679Z,15.10
2023-05-23T07:31:42.735Z,14.95
2023-05-23T07:32:42.729Z,14.88
2023-05-23T07:33:42.643Z,14.89
2023-05-23T07:34:42.611Z,14.88
2023-05-23T07:35:42.637Z,14.77
2023-05-23T07:36:42.643Z,14.70
2023-05-23T07:37:42.671Z,14.75
2023-05-23T07:38:42.542Z,14.72
2023-05-23T07:39:42.564Z,14.70
2023-05-23T07:40:42.816Z,14.65
2023-05-23T07:41:42.521Z,14.52
2023-05-23T07:42:42.644Z,14.57
2023-05-23T07:43:42.548Z,14.46
2023-05-23T07:44:43.461Z,14.47
2023-05-23T07:45:42.482Z,14.46
2023-05-23T07:46:42.531Z,14.39
2023-05-23T07:47:42.480Z,14.39
2023-05-23T07:48:43.665Z,14.32
2023-05-23T07:49:42.394Z,14.28
2023-05-23T07:50:42.594Z,14.25
2023-05-23T07:51:42.485Z,14.24
2023-05-23T07:52:42.472Z,14.25
2023-05-23T07:53:43.339Z,14.22
2023-05-23T07:54:42.328Z,14.24
2023-05-23T07:55:42.443Z,14.27
2023-05-23T07:56:42.511Z,14.24
2023-05-23T07:57:42.394Z,14.20
2023-05-23T07:58:42.293Z,14.18
2023-05-23T07:59:42.472Z,14.18
2023-05-23T08:00:42.361Z,14.17
2023-05-23T08:01:42.421Z,14.18
2023-05-23T08:02:42.754Z,14.15
2023-05-23T08:03:42.324Z,14.17
2023-05-23T08:04:42.304Z,14.15
2023-05-23T08:05:42.317Z,14.10
2023-05-23T08:06:52.104Z,14.09
2023-05-23T08:07:43.361Z,14.06
2023-05-23T08:08:42.239Z,14.06
2023-05-23T08:09:42.338Z,14.07
2023-05-23T08:10:42.376Z,14.06
2023-05-23T08:11:42.246Z,14.00
2023-05-23T08:12:42.178Z,13.96
2023-05-23T08:13:42.220Z,14.03
2023-05-23T08:14:50.726Z,14.02
2023-05-23T08:15:43.135Z,14.03
2023-05-23T08:16:42.169Z,14.06
2023-05-23T08:17:42.109Z,14.06
2023-05-23T08:18:42.137Z,14.03
2023-05-23T08:19:42.167Z,14.04
2023-05-23T08:20:42.313Z,14.03
2023-05-23T08:21:42.015Z,14.03
2023-05-23T08:22:41.971Z,13.99
2023-05-23T08:23:41.986Z,13.84
2023-05-23T08:24:41.952Z,13.78
2023-05-23T08:25:41.914Z,13.69
2023-05-23T08:26:41.908Z,13.67
2023-05-23T08:27:41.921Z,13.62
2023-05-23T08:28:41.881Z,13.54
2023-05-23T08:29:41.860Z,13.46
2023-05-23T08:30:42.057Z,13.49
2023-05-23T08:31:41.898Z,13.44
2023-05-23T08:32:41.933Z,13.42
2023-05-23T08:33:41.813Z,13.45
2023-05-23T08:34:41.797Z,13.49
2023-05-23T08:35:41.841Z,13.48
2023-05-23T08:36:41.771Z,13.48
2023-05-23T08:37:41.786Z,13.45
2023-05-23T08:38:42.030Z,13.48
2023-05-23T08:39:41.717Z,13.49
2023-05-23T08:40:41.887Z,13.54
2023-05-23T08:41:41.705Z,13.60
2023-05-23T08:42:41.709Z,13.60
2023-05-23T08:43:41.693Z,13.62
2023-05-23T08:44:41.882Z,13.63
2023-05-23T08:45:41.638Z,13.54
2023-05-23T08:46:41.843Z,13.57
2023-05-23T08:47:41.676Z,13.60
2023-05-23T08:48:41.590Z,13.60
2023-05-23T08:49:41.672Z,13.60
2023-05-23T08:50:41.865Z,13.52
2023-05-23T08:51:41.582Z,13.51
2023-05-23T08:52:41.547Z,13.55
2023-05-23T08:53:41.541Z,13.60
2023-05-23T08:54:41.601Z,13.64
2023-05-23T08:55:41.775Z,13.64
2023-05-23T08:56:41.509Z,13.67
2023-05-23T08:57:41.525Z,13.71
2023-05-23T08:58:41.509Z,13.67
2023-05-23T08:59:41.525Z,13.60
2023-05-23T09:00:41.721Z,13.59
2023-05-23T09:01:41.530Z,13.62
2023-05-23T09:02:41.532Z,13.55
2023-05-23T09:03:41.466Z,13.60
2023-05-23T09:04:41.405Z,13.66
2023-05-23T09:05:41.456Z,13.67
2023-05-23T09:06:41.402Z,13.66
2023-05-23T09:07:41.369Z,13.62
2023-05-23T09:08:41.436Z,13.69
2023-05-23T09:09:41.523Z,13.66
2023-05-23T09:10:41.499Z,13.77
2023-05-23T09:11:41.395Z,13.87
2023-05-23T09:12:41.298Z,13.89
2023-05-23T09:13:41.319Z,13.91
2023-05-23T09:14:41.278Z,13.87
2023-05-23T09:15:41.266Z,13.87
2023-05-23T09:16:41.413Z,13.85
2023-05-23T09:17:41.279Z,13.84
2023-05-23T09:18:41.309Z,13.71
2023-05-23T09:19:41.280Z,13.63
2023-05-23T09:20:41.553Z,13.54
2023-05-23T09:21:41.298Z,13.59
2023-05-23T09:22:41.197Z,13.63
2023-05-23T09:23:41.146Z,13.75
2023-05-23T09:24:41.141Z,13.75
2023-05-23T09:25:41.212Z,13.69
2023-05-23T09:26:41.141Z,13.71
2023-05-23T09:27:41.139Z,13.64
2023-05-23T09:28:41.097Z,13.64
2023-05-23T09:29:41.106Z,13.66
2023-05-23T09:30:41.289Z,13.66
2023-05-23T09:31:41.122Z,13.73
2023-05-23T09:32:41.092Z,13.78
2023-05-23T09:33:41.125Z,13.82
2023-05-23T09:34:41.153Z,13.88
2023-05-23T09:35:41.049Z,13.91
2023-05-23T09:36:41.031Z,13.99
2023-05-23T09:37:40.985Z,13.99
2023-05-23T09:38:41.170Z,13.84
2023-05-23T09:39:41.030Z,13.78
2023-05-23T09:40:41.075Z,13.64
2023-05-23T09:41:41.012Z,13.63
2023-05-23T09:42:40.918Z,13.64
2023-05-23T09:43:41.043Z,13.64
2023-05-23T09:44:41.073Z,13.67
2023-05-23T09:45:40.878Z,13.64
2023-05-23T09:46:40.890Z,13.59
2023-05-23T09:47:40.837Z,13.54
2023-05-23T09:48:40.951Z,13.54
2023-05-23T09:49:40.857Z,13.60
2023-05-23T09:50:41.146Z,13.59
2023-05-23T09:51:40.886Z,13.45
2023-05-23T09:52:40.804Z,13.36
2023-05-23T09:53:40.806Z,13.30
2023-05-23T09:54:40.758Z,13.32
2023-05-23T09:55:40.813Z,13.30
2023-05-23T09:56:40.887Z,13.23
2023-05-23T09:57:40.768Z,13.20
2023-05-23T09:58:40.717Z,13.23
2023-05-23T09:59:40.798Z,13.33
2023-05-23T10:00:41.004Z,13.41
2023-05-23T10:01:40.897Z,13.57
2023-05-23T10:02:40.761Z,13.79
2023-05-23T10:03:40.798Z,13.85
2023-05-23T10:04:40.821Z,14.07
2023-05-23T10:05:40.742Z,14.15
2023-05-23T10:06:40.633Z,14.27
2023-05-23T10:07:40.750Z,14.36
2023-05-23T10:08:40.644Z,14.29
2023-05-23T10:09:40.685Z,14.35
2023-05-23T10:10:41.142Z,14.45
2023-05-23T10:11:40.697Z,14.51
2023-05-23T10:12:40.685Z,14.45
2023-05-23T10:13:40.689Z,14.55
2023-05-23T10:14:40.473Z,14.58
2023-05-23T10:15:40.510Z,14.47
2023-05-23T10:16:40.620Z,14.46
2023-05-23T10:17:40.603Z,14.62
2023-05-23T10:18:40.414Z,14.64
2023-05-23T10:19:40.605Z,14.69
2023-05-23T10:20:40.856Z,14.73
2023-05-23T10:21:40.381Z,14.88
2023-05-23T10:22:40.407Z,14.91
2023-05-23T10:23:40.369Z,15.07
2023-05-23T10:24:40.355Z,15.31
2023-05-23T10:25:40.373Z,15.49
2023-05-23T10:26:40.304Z,15.65
2023-05-23T10:27:40.287Z,15.72
2023-05-23T10:28:40.314Z,15.69
2023-05-23T10:29:40.576Z,15.69
2023-05-23T10:30:40.436Z,15.67
2023-05-23T10:31:40.405Z,15.59
2023-05-23T10:32:40.235Z,15.62
2023-05-23T10:33:40.233Z,15.47
2023-05-23T10:34:40.209Z,15.51
2023-05-23T10:35:40.232Z,15.56
2023-05-23T10:36:40.984Z,15.44
2023-05-23T10:37:40.174Z,15.34
2023-05-23T10:38:40.212Z,15.17
2023-05-23T10:39:40.127Z,14.95
2023-05-23T10:40:40.540Z,14.80
2023-05-23T10:41:40.121Z,14.84
2023-05-23T10:42:40.094Z,14.80
2023-05-23T10:43:40.100Z,14.88
2023-05-23T10:44:40.084Z,14.94
2023-05-23T10:45:40.086Z,14.95
2023-05-23T10:46:40.061Z,14.92
2023-05-23T10:47:40.046Z,14.80
2023-05-23T10:48:40.028Z,14.78
2023-05-23T10:49:42.018Z,14.77
2023-05-23T10:50:40.201Z,14.83
2023-05-23T10:51:40.058Z,14.83
2023-05-23T10:52:39.966Z,14.86
2023-05-23T10:53:39.972Z,14.83
2023-05-23T10:54:39.945Z,14.84
2023-05-23T10:55:40.483Z,14.88
2023-05-23T10:56:39.892Z,14.86
2023-05-23T10:57:39.881Z,14.92
2023-05-23T10:58:39.968Z,14.94
2023-05-23T10:59:39.867Z,14.95
2023-05-23T11:00:40.155Z,15.03
2023-05-23T11:01:39.912Z,15.19
2023-05-23T11:02:39.892Z,15.27
2023-05-23T11:03:39.912Z,15.20
2023-05-23T11:04:39.832Z,15.14
2023-05-23T11:05:39.796Z,15.25
2023-05-23T11:06:39.794Z,15.29
2023-05-23T11:07:39.910Z,15.25
2023-05-23T11:08:47.683Z,14.98
2023-05-23T11:09:40.794Z,14.98
2023-05-23T11:10:39.902Z,15.07
2023-05-23T11:11:39.713Z,15.13
2023-05-23T11:12:39.779Z,15.10
2023-05-23T11:13:39.687Z,15.07
2023-05-23T11:14:39.640Z,15.02
2023-05-23T11:15:39.687Z,15.01
2023-05-23T11:16:39.723Z,15.06
2023-05-23T11:17:39.636Z,15.13
2023-05-23T11:18:39.597Z,15.13
2023-05-23T11:19:39.767Z,15.21
2023-05-23T11:20:39.675Z,15.31
2023-05-23T11:21:39.601Z,15.43
2023-05-23T11:22:39.550Z,15.68
2023-05-23T11:23:39.533Z,15.78
2023-05-23T11:24:39.518Z,15.93
2023-05-23T11:25:39.507Z,16.07
2023-05-23T11:26:39.593Z,16.23
2023-05-23T11:27:39.499Z,16.34
2023-05-23T11:28:39.532Z,16.25
2023-05-23T11:29:39.523Z,16.24
2023-05-23T11:30:39.586Z,16.28
2023-05-23T11:31:39.482Z,16.27
2023-05-23T11:32:39.518Z,16.12
2023-05-23T11:33:39.419Z,15.96
2023-05-23T11:34:39.403Z,15.67
2023-05-23T11:35:39.425Z,15.43
2023-05-23T11:36:39.372Z,15.23
2023-05-23T11:37:39.386Z,15.25
2023-05-23T11:38:39.347Z,15.20
2023-05-23T11:39:39.317Z,15.10
2023-05-23T11:40:39.360Z,14.96
2023-05-23T11:41:39.337Z,14.96
2023-05-23T11:42:39.303Z,15.10
2023-05-23T11:43:39.311Z,15.17
2023-05-23T11:44:39.272Z,15.25
2023-05-23T11:45:39.369Z,15.39
2023-05-23T11:46:39.363Z,15.53
2023-05-23T11:47:39.318Z,16.00
2023-05-23T11:48:39.247Z,16.71
2023-05-23T11:49:39.191Z,17.16
2023-05-23T11:50:39.291Z,17.25
2023-05-23T11:51:39.179Z,17.46
2023-05-23T11:52:39.150Z,17.25
2023-05-23T11:53:39.156Z,17.15
2023-05-23T11:54:39.137Z,17.22
2023-05-23T11:55:46.662Z,17.26
2023-05-23T11:56:39.151Z,16.98
2023-05-23T11:57:39.110Z,16.67
2023-05-23T11:58:39.066Z,16.53
2023-05-23T11:59:39.079Z,16.42
2023-05-23T12:00:39.134Z,16.17
2023-05-23T12:01:39.056Z,16.25
2023-05-23T12:02:39.150Z,16.01
2023-05-23T12:03:39.223Z,15.82
2023-05-23T12:04:39.174Z,16.14
2023-05-23T12:05:38.983Z,17.00
2023-05-23T12:06:39.007Z,17.36
2023-05-23T12:07:39.019Z,17.86
2023-05-23T12:08:38.925Z,18.51
2023-05-23T12:09:38.924Z,18.67
2023-05-23T12:10:39.246Z,18.21
2023-05-23T12:11:38.908Z,17.46
2023-05-23T12:12:38.905Z,17.06
2023-05-23T12:13:38.840Z,17.56
2023-05-23T12:14:38.886Z,17.90
2023-05-23T12:15:38.869Z,17.92
2023-05-23T12:16:39.589Z,18.41
2023-05-23T12:17:38.832Z,18.44
2023-05-23T12:18:38.833Z,17.96
2023-05-23T12:19:38.906Z,18.23
2023-05-23T12:20:38.893Z,18.33
2023-05-23T12:21:38.772Z,17.92
2023-05-23T12:22:38.780Z,17.49
2023-05-23T12:23:38.734Z,17.74
2023-05-23T12:24:38.785Z,18.55
2023-05-23T12:25:38.866Z,19.06
2023-05-23T12:26:38.690Z,19.26
2023-05-23T12:27:38.733Z,19.61
2023-05-23T12:28:38.816Z,19.16
2023-05-23T12:29:38.661Z,19.21
2023-05-23T12:30:38.743Z,19.65
2023-05-23T12:31:38.653Z,19.66
2023-05-23T12:32:38.665Z,18.90
2023-05-23T12:33:38.726Z,19.37
2023-05-23T12:34:38.664Z,19.58
2023-05-23T12:35:38.709Z,19.61
2023-05-23T12:36:48.010Z,19.88
2023-05-23T12:37:39.608Z,19.91
2023-05-23T12:38:38.528Z,19.07
2023-05-23T12:39:38.577Z,18.50
2023-05-23T12:40:38.513Z,18.45
2023-05-23T12:41:38.504Z,18.73
2023-05-23T12:42:38.520Z,18.88
2023-05-23T12:43:38.477Z,19.41
2023-05-23T12:44:38.529Z,19.40
2023-05-23T12:45:38.523Z,18.47
2023-05-23T12:46:38.456Z,18.21
2023-05-23T12:47:38.588Z,18.45
2023-05-23T12:48:38.419Z,18.88
2023-05-23T12:49:38.385Z,18.63
2023-05-23T12:50:38.440Z,19.08
2023-05-23T12:51:38.345Z,19.51
2023-05-23T12:52:38.366Z,19.44
2023-05-23T12:53:38.381Z,19.11